OIZI  Iran Shahr  Airport

Iranshahr, Iran

Add Bookmark
ICAO OIZI
Type Airport
Status Operational
Latitude
27° 14' 9" N
27.236099
Longitude
60° 43' 12" E
60.720001
Local (DST + 5) UTC (GMT + 4)
May 4, 2015 08:34 May 4, 2015 16:04
Sunrise-Sunset Local UTC
Begin Civil Twilight 05:20 00:50
Sunrise 05:44 01:14
Sunset 07:03 14:33
End Civil Twilight 07:27 14:57
VFR
VFR
MVFR
MVFR
IFR
VFR
LIFR
VFR
Unknown
Unavailable

Current Weather

METAR Observed VFR
OIZI 041500Z 20006KT 9999 FEW040 37/M01 Q1008 Mon, May 4, 2015 @ 15:00 UTC
(1 Hour, 4 Minutes ago)
Visual Flight Rules
Wind Visibility Clouds Conditions
200° at 6 knots (11 kph) 10 km or more
  • Few at 4,000 ft AGL
  • No significant weather
Temperatures Readings Precipitation
Current Temp
37°C
99°F
Dewpoint
-1°C
30°F
Humidity 9%
Altimeter 29.76" Hg
Sea Level Pressure 1,008 mb
Field Elevation
591 m
1,939 ft
None Recorded
-
-

CheckWX.com is intended as a tool to help pilots better visualize weather data. It is not intended as a substitute for an official weather briefing obtained from a Flight Service Station. CheckWX.com does not meet the FAA requirements for an official pre-flight weather briefing. Therefore, it's important that pilots still call and obtain an official FSS pre-flight weather briefing.

© 2007-2015 CheckWX.com
16:04:27 UTC